Time;durP1;ratioP1;P1;durP2;ratioP2;P2;SDS_P1;SDS_P2;PMS_P1;PMS_P2;Temp;Humidity;BMP_temperature;BMP_pressure;BME280_temperature;BME280_humidity;BME280_pressure;Samples;Min_cycle;Max_cycle;Signal;HPM_P1;HPM_P2
2024/02/29 00:01:57;;;;;;;24.17;13.00;;;6.50;99.90;;;;;;4968893;28;20461;-72
2024/02/29 00:04:28;;;;;;;16.00;10.27;;;6.50;99.90;;;;;;4968775;28;20215;-74
2024/02/29 00:06:54;;;;;;;10.93;6.30;;;6.50;99.90;;;;;;4961235;28;20972;-73
2024/02/29 00:09:20;;;;;;;7.77;4.70;;;6.40;99.90;;;;;;4942522;28;20470;-74
2024/02/29 00:11:45;;;;;;;8.23;5.20;;;6.40;99.90;;;;;;4957986;28;20482;-74
2024/02/29 00:14:12;;;;;;;6.00;4.83;;;6.20;99.90;;;;;;4960792;28;20235;-74
2024/02/29 00:16:39;;;;;;;7.53;4.70;;;6.20;99.90;;;;;;4956575;28;20214;-74
2024/02/29 00:19:05;;;;;;;8.90;5.40;;;6.20;99.90;;;;;;4971524;28;21008;-71
2024/02/29 00:21:33;;;;;;;5.63;4.57;;;6.30;99.90;;;;;;4954978;28;20474;-73
2024/02/29 00:23:59;;;;;;;7.67;4.37;;;6.30;99.90;;;;;;4960042;28;20470;-73
2024/02/29 00:26:24;;;;;;;4.80;4.30;;;6.30;99.90;;;;;;4955709;28;21043;-74
2024/02/29 00:28:50;;;;;;;8.60;4.77;;;6.40;99.90;;;;;;4960751;28;20214;-74
2024/02/29 00:31:15;;;;;;;10.93;5.50;;;6.40;99.90;;;;;;4962011;28;20233;-74
2024/02/29 00:33:41;;;;;;;7.10;5.30;;;6.40;99.90;;;;;;4959313;28;20280;-74
2024/02/29 00:36:07;;;;;;;7.47;5.30;;;6.30;99.90;;;;;;4958402;28;20242;-73
2024/02/29 00:38:32;;;;;;;8.90;4.70;;;6.30;99.90;;;;;;4959602;28;20269;-74
2024/02/29 00:40:58;;;;;;;11.70;4.30;;;6.30;99.90;;;;;;4963554;28;20297;-73
2024/02/29 00:43:24;;;;;;;7.23;4.30;;;6.30;99.90;;;;;;4956792;28;20682;-74
2024/02/29 00:45:50;;;;;;;8.10;4.37;;;6.30;99.90;;;;;;4960765;28;20219;-74
2024/02/29 00:48:15;;;;;;;8.47;4.60;;;6.30;99.90;;;;;;4957600;28;20227;-73
2024/02/29 00:50:41;;;;;;;7.67;4.30;;;6.30;99.90;;;;;;4957904;28;20328;-74
2024/02/29 00:53:06;;;;;;;7.87;3.80;;;6.20;99.90;;;;;;4960932;28;20230;-74
2024/02/29 00:55:32;;;;;;;7.40;4.47;;;6.20;99.90;;;;;;4961634;28;20257;-73
2024/02/29 00:57:58;;;;;;;7.47;5.40;;;6.20;99.90;;;;;;4940421;28;20227;-74
2024/02/29 01:00:23;;;;;;;9.00;6.00;;;6.20;99.90;;;;;;4956583;28;20223;-74
2024/02/29 01:02:49;;;;;;;15.57;7.73;;;6.20;99.90;;;;;;4949065;28;20636;-73
2024/02/29 01:05:15;;;;;;;15.83;8.23;;;6.20;99.90;;;;;;4966960;28;20302;-73
2024/02/29 01:07:41;;;;;;;12.70;7.63;;;6.20;99.90;;;;;;4958864;28;20528;-73
2024/02/29 01:10:13;;;;;;;11.70;6.47;;;6.20;99.90;;;;;;4946900;28;20664;-73
2024/02/29 01:12:41;;;;;;;8.77;5.27;;;6.20;99.90;;;;;;4960689;28;20250;-74
2024/02/29 01:15:08;;;;;;;8.17;5.20;;;6.20;99.90;;;;;;4965523;28;20469;-74
2024/02/29 01:17:35;;;;;;;9.40;5.73;;;6.20;99.90;;;;;;4966849;28;20465;-73
2024/02/29 01:20:00;;;;;;;10.17;6.87;;;6.20;99.90;;;;;;4968094;28;20480;-74
2024/02/29 01:22:26;;;;;;;10.57;5.83;;;6.20;99.90;;;;;;4967894;28;20466;-73
2024/02/29 01:24:52;;;;;;;10.27;5.60;;;6.10;99.90;;;;;;4968036;28;20342;-74
2024/02/29 01:27:17;;;;;;;9.27;4.97;;;6.10;99.90;;;;;;4972505;28;20250;-73
2024/02/29 01:29:43;;;;;;;9.40;5.70;;;6.10;99.90;;;;;;4968637;28;20211;-74
2024/02/29 01:32:09;;;;;;;7.40;4.60;;;6.10;99.90;;;;;;4953432;28;20741;-73
2024/02/29 01:34:35;;;;;;;7.37;4.93;;;6.10;99.90;;;;;;4967658;28;20843;-74
2024/02/29 01:37:01;;;;;;;12.07;6.10;;;6.00;99.90;;;;;;4978875;28;21042;-73
2024/02/29 01:39:27;;;;;;;11.10;7.20;;;6.10;99.90;;;;;;4982606;28;20471;-73
2024/02/29 01:41:52;;;;;;;8.27;5.53;;;5.90;99.90;;;;;;4970515;28;20214;-74
2024/02/29 01:44:18;;;;;;;11.83;6.40;;;5.80;99.90;;;;;;4966047;28;20233;-74
2024/02/29 01:46:44;;;;;;;10.00;5.50;;;5.90;99.90;;;;;;4971050;28;20348;-75
2024/02/29 01:49:12;;;;;;;12.27;6.77;;;5.90;99.90;;;;;;4964310;28;20214;-73
2024/02/29 01:51:43;;;;;;;9.00;6.00;;;5.90;99.90;;;;;;4965083;28;20475;-73
2024/02/29 01:54:10;;;;;;;7.17;5.50;;;5.90;99.90;;;;;;4965449;28;20468;-73
2024/02/29 01:56:36;;;;;;;7.77;5.47;;;5.90;99.90;;;;;;4970127;28;20478;-74
2024/02/29 01:59:03;;;;;;;10.00;6.00;;;5.90;99.90;;;;;;4965309;28;20471;-73
2024/02/29 02:01:28;;;;;;;14.20;5.83;;;5.90;99.90;;;;;;4965217;28;20474;-73
2024/02/29 02:03:54;;;;;;;11.67;6.23;;;5.80;99.90;;;;;;4966821;28;20458;-73
2024/02/29 02:06:20;;;;;;;9.13;6.00;;;5.80;99.90;;;;;;4969211;28;20234;-74
2024/02/29 02:08:46;;;;;;;10.87;6.20;;;5.80;99.90;;;;;;4965537;28;20563;-73
2024/02/29 02:11:11;;;;;;;11.87;6.83;;;5.80;99.90;;;;;;4969531;28;20234;-74
2024/02/29 02:13:38;;;;;;;13.10;6.50;;;5.70;99.90;;;;;;4968295;28;20219;-73
2024/02/29 02:16:05;;;;;;;9.40;5.83;;;5.70;99.90;;;;;;4967224;28;20255;-73
2024/02/29 02:18:31;;;;;;;9.23;5.60;;;5.70;99.90;;;;;;4964507;28;20467;-73
2024/02/29 02:20:57;;;;;;;13.10;6.47;;;5.70;99.90;;;;;;4969182;28;20505;-74
2024/02/29 02:23:22;;;;;;;13.03;6.03;;;5.70;99.90;;;;;;4963323;28;20242;-73
2024/02/29 02:25:48;;;;;;;15.03;8.03;;;5.70;99.90;;;;;;4966854;28;20314;-74
2024/02/29 02:28:14;;;;;;;10.13;6.27;;;5.70;99.90;;;;;;4966916;28;20222;-73
2024/02/29 02:30:40;;;;;;;13.80;7.90;;;5.60;99.90;;;;;;4969964;28;20227;-74
2024/02/29 02:33:06;;;;;;;10.23;6.13;;;5.60;99.90;;;;;;4970412;28;20254;-73
2024/02/29 02:35:33;;;;;;;9.73;6.10;;;5.60;99.90;;;;;;4968666;28;20481;-73
2024/02/29 02:38:03;;;;;;;13.07;6.63;;;5.50;99.90;;;;;;4968291;28;20222;-73
2024/02/29 02:40:29;;;;;;;14.53;7.00;;;5.50;99.90;;;;;;4968963;28;20501;-73
2024/02/29 02:42:54;;;;;;;9.20;5.83;;;5.50;99.90;;;;;;4961847;28;20833;-73
2024/02/29 02:45:20;;;;;;;11.83;6.67;;;5.50;99.90;;;;;;4963644;28;20466;-73
2024/02/29 02:47:46;;;;;;;14.43;7.00;;;5.40;99.90;;;;;;4948506;28;20226;-73
2024/02/29 02:50:12;;;;;;;12.13;7.20;;;5.30;99.90;;;;;;4958864;28;20226;-73
2024/02/29 02:52:37;;;;;;;8.40;6.30;;;5.30;99.90;;;;;;4958586;28;20301;-73
2024/02/29 02:55:04;;;;;;;12.37;7.27;;;5.40;99.90;;;;;;4962019;28;20549;-73
2024/02/29 02:57:30;;;;;;;12.80;7.07;;;5.40;99.90;;;;;;4954595;28;20230;-73
2024/02/29 02:59:55;;;;;;;10.03;5.97;;;5.40;99.90;;;;;;4954639;28;20471;-73
2024/02/29 03:02:21;;;;;;;14.90;6.97;;;5.40;99.90;;;;;;4957002;28;20280;-73
2024/02/29 03:04:46;;;;;;;11.57;6.70;;;5.40;99.90;;;;;;4962708;28;20236;-72
2024/02/29 03:07:12;;;;;;;12.70;6.90;;;5.40;99.90;;;;;;4956117;28;20297;-73
2024/02/29 03:09:38;;;;;;;12.60;7.27;;;5.40;99.90;;;;;;4955958;28;20254;-72
2024/02/29 03:12:04;;;;;;;11.80;7.67;;;5.40;99.90;;;;;;4959959;28;20222;-72
2024/02/29 03:14:29;;;;;;;11.70;5.97;;;5.40;99.90;;;;;;4955656;28;20242;-72
2024/02/29 03:16:55;;;;;;;13.73;7.87;;;5.40;99.90;;;;;;4961114;28;21026;-73
2024/02/29 03:19:21;;;;;;;12.83;6.97;;;5.40;99.90;;;;;;4955413;28;20226;-73
2024/02/29 03:21:46;;;;;;;12.87;7.47;;;5.30;99.90;;;;;;4962135;28;20269;-73
2024/02/29 03:24:12;;;;;;;12.60;6.73;;;5.30;99.90;;;;;;4958724;28;20242;-73
2024/02/29 03:26:38;;;;;;;11.10;6.43;;;5.30;99.90;;;;;;4959312;28;20230;-72
2024/02/29 03:29:03;;;;;;;17.30;8.37;;;5.30;99.90;;;;;;4958850;28;20229;-72
2024/02/29 03:31:29;;;;;;;14.97;8.00;;;5.30;99.90;;;;;;4960205;28;20270;-72
2024/02/29 03:33:55;;;;;;;16.73;7.63;;;5.20;99.90;;;;;;4973385;28;20229;-73
2024/02/29 03:36:20;;;;;;;15.13;7.83;;;5.20;99.90;;;;;;4962570;28;20234;-73
2024/02/29 03:38:46;;;;;;;12.10;7.53;;;5.20;99.90;;;;;;4958899;28;20267;-71
2024/02/29 03:41:11;;;;;;;12.70;7.00;;;5.20;99.90;;;;;;4971164;28;20231;-72
2024/02/29 03:43:37;;;;;;;20.20;8.37;;;5.10;99.90;;;;;;4956913;28;20245;-72
2024/02/29 03:46:03;;;;;;;12.00;7.77;;;5.10;99.90;;;;;;4961019;28;20229;-71
2024/02/29 03:48:29;;;;;;;14.03;8.47;;;5.10;99.90;;;;;;4956024;28;20251;-72
2024/02/29 03:50:55;;;;;;;11.63;7.17;;;5.10;99.90;;;;;;4959644;28;20666;-73
2024/02/29 03:53:20;;;;;;;17.00;7.50;;;5.00;99.90;;;;;;4954484;28;20222;-73
2024/02/29 03:55:48;;;;;;;12.37;7.30;;;5.00;99.90;;;;;;4957402;28;20214;-73
2024/02/29 03:58:14;;;;;;;13.57;7.83;;;5.00;99.90;;;;;;4962833;28;20301;-72
2024/02/29 04:00:39;;;;;;;12.80;8.07;;;5.00;99.90;;;;;;4961997;28;20896;-72
2024/02/29 04:03:05;;;;;;;10.33;7.37;;;5.00;99.90;;;;;;4965029;28;20211;-73
2024/02/29 04:05:31;;;;;;;19.10;7.40;;;5.00;99.90;;;;;;4964509;28;20227;-73
2024/02/29 04:08:03;;;;;;;12.60;6.77;;;5.00;99.90;;;;;;4968310;28;20218;-73
2024/02/29 04:10:30;;;;;;;15.33;7.53;;;5.00;99.90;;;;;;4978216;28;20269;-72
2024/02/29 04:12:57;;;;;;;14.27;8.20;;;5.00;99.90;;;;;;4965203;28;20478;-73
2024/02/29 04:15:23;;;;;;;14.30;7.77;;;5.00;99.90;;;;;;4964409;28;20472;-73
2024/02/29 04:17:48;;;;;;;11.23;7.60;;;5.00;99.90;;;;;;4968552;28;20451;-73
2024/02/29 04:20:14;;;;;;;8.70;5.77;;;4.90;99.90;;;;;;4963348;28;20232;-73
2024/02/29 04:22:40;;;;;;;9.43;6.97;;;4.90;99.90;;;;;;4964185;28;20219;-73
2024/02/29 04:25:10;;;;;;;13.07;8.13;;;4.90;99.90;;;;;;4967430;28;20226;-74
2024/02/29 04:27:36;;;;;;;19.20;9.10;;;4.90;99.90;;;;;;4964222;28;20226;-73
2024/02/29 04:30:03;;;;;;;18.30;9.60;;;4.90;99.90;;;;;;4967736;28;20473;-72
2024/02/29 04:32:29;;;;;;;11.40;7.53;;;4.80;99.90;;;;;;4967343;28;20564;-72
2024/02/29 04:34:54;;;;;;;15.17;7.90;;;4.80;99.90;;;;;;4965613;28;20577;-73
2024/02/29 04:37:20;;;;;;;10.93;7.10;;;4.80;99.90;;;;;;4965551;28;20274;-72
2024/02/29 04:39:46;;;;;;;18.90;8.47;;;4.80;99.90;;;;;;4941056;28;20745;-73
2024/02/29 04:42:11;;;;;;;12.27;7.80;;;4.80;99.90;;;;;;4961976;28;20317;-73
2024/02/29 04:44:37;;;;;;;14.43;8.50;;;4.80;99.90;;;;;;4963794;28;20242;-72
2024/02/29 04:47:03;;;;;;;15.27;9.33;;;4.70;99.90;;;;;;4966704;28;20261;-73
2024/02/29 04:49:29;;;;;;;16.63;9.00;;;4.70;99.90;;;;;;4961074;28;20225;-72
2024/02/29 04:51:54;;;;;;;15.80;8.77;;;4.70;99.90;;;;;;4964113;28;20693;-73
2024/02/29 04:54:20;;;;;;;12.27;8.37;;;4.60;99.90;;;;;;4959128;28;20305;-73
2024/02/29 04:56:46;;;;;;;15.53;9.00;;;4.50;99.90;;;;;;4959512;28;20230;-73
2024/02/29 04:59:12;;;;;;;14.27;8.17;;;4.60;99.90;;;;;;4961825;28;20247;-72
2024/02/29 05:01:38;;;;;;;15.20;9.17;;;4.60;99.90;;;;;;4961631;28;20493;-72
2024/02/29 05:04:04;;;;;;;15.57;9.20;;;4.60;99.90;;;;;;4953000;28;20454;-73
2024/02/29 05:06:29;;;;;;;14.43;8.40;;;4.60;99.90;;;;;;4962186;28;20227;-73
2024/02/29 05:08:55;;;;;;;16.10;8.60;;;4.60;99.90;;;;;;4961755;28;20245;-73
2024/02/29 05:11:21;;;;;;;14.07;8.43;;;4.60;99.90;;;;;;4960950;28;20309;-72
2024/02/29 05:13:46;;;;;;;12.83;8.30;;;4.60;99.90;;;;;;4959816;28;20242;-73
2024/02/29 05:16:16;;;;;;;18.83;9.70;;;4.60;99.90;;;;;;4960521;28;20309;-72
2024/02/29 05:18:42;;;;;;;15.70;9.10;;;4.60;99.90;;;;;;4959367;28;20253;-72
2024/02/29 05:21:08;;;;;;;16.50;9.10;;;4.50;99.90;;;;;;4962331;28;20486;-73
2024/02/29 05:23:33;;;;;;;15.77;8.83;;;4.60;99.90;;;;;;4960141;28;20218;-72
2024/02/29 05:25:59;;;;;;;14.50;9.00;;;4.50;99.90;;;;;;4964324;28;20218;-73
2024/02/29 05:28:26;;;;;;;14.80;8.87;;;4.60;99.90;;;;;;4960167;28;20219;-72
2024/02/29 05:30:51;;;;;;;13.70;9.30;;;4.50;99.90;;;;;;4963585;28;20615;-72
2024/02/29 05:33:17;;;;;;;15.67;8.37;;;4.50;99.90;;;;;;4963520;28;20479;-72
2024/02/29 05:35:48;;;;;;;18.40;10.07;;;4.40;99.90;;;;;;4961152;28;20224;-73
2024/02/29 05:38:15;;;;;;;14.07;8.57;;;4.50;99.90;;;;;;4962014;28;20220;-72
2024/02/29 05:40:40;;;;;;;18.87;10.37;;;4.40;99.90;;;;;;4958867;28;20459;-73
2024/02/29 05:43:06;;;;;;;17.07;10.20;;;4.40;99.90;;;;;;4963141;28;20473;-73
2024/02/29 05:45:32;;;;;;;20.23;9.20;;;4.40;99.90;;;;;;4944533;28;20228;-73
2024/02/29 05:47:57;;;;;;;14.27;8.20;;;4.40;99.90;;;;;;4958602;28;20227;-74
2024/02/29 05:50:23;;;;;;;19.43;10.10;;;4.40;99.90;;;;;;4957302;28;20253;-73
2024/02/29 05:52:49;;;;;;;14.37;8.60;;;4.40;99.90;;;;;;4958074;28;20277;-73
2024/02/29 05:55:14;;;;;;;15.90;8.40;;;4.40;99.90;;;;;;4958531;28;20569;-73
2024/02/29 05:57:40;;;;;;;17.30;8.93;;;4.30;99.90;;;;;;4959319;28;20226;-73
2024/02/29 06:00:06;;;;;;;15.07;8.93;;;4.30;99.90;;;;;;4982180;28;20223;-73
2024/02/29 06:02:38;;;;;;;20.53;8.43;;;4.30;99.90;;;;;;4952213;28;20219;-73
2024/02/29 06:05:05;;;;;;;15.23;9.00;;;4.40;99.90;;;;;;4976270;28;20451;-73
2024/02/29 06:07:31;;;;;;;18.40;8.87;;;4.40;99.90;;;;;;4968317;28;20465;-73
2024/02/29 06:09:57;;;;;;;15.80;9.57;;;4.40;99.90;;;;;;4966047;28;20467;-70
2024/02/29 06:12:22;;;;;;;23.10;12.77;;;4.40;99.90;;;;;;4965040;28;20314;-74
2024/02/29 06:14:48;;;;;;;26.00;12.20;;;4.40;99.90;;;;;;4964880;28;20257;-73
2024/02/29 06:17:16;;;;;;;16.10;9.33;;;4.40;99.90;;;;;;4965419;28;20220;-73
2024/02/29 06:19:41;;;;;;;18.27;11.77;;;4.40;99.90;;;;;;4965834;28;20226;-73
2024/02/29 06:22:08;;;;;;;26.40;12.37;;;4.40;99.90;;;;;;4967375;28;20516;-70
2024/02/29 06:24:34;;;;;;;20.83;10.60;;;4.30;99.90;;;;;;4967293;28;20293;-73
2024/02/29 06:26:59;;;;;;;21.97;9.77;;;4.30;99.90;;;;;;4968256;28;20455;-72
2024/02/29 06:29:25;;;;;;;21.33;11.70;;;4.30;99.90;;;;;;4959881;28;20454;-72
2024/02/29 06:31:51;;;;;;;21.03;12.37;;;4.30;99.90;;;;;;4960254;28;20218;-72
2024/02/29 06:34:18;;;;;;;25.50;12.20;;;4.30;99.90;;;;;;4968094;28;20223;-72
2024/02/29 06:36:44;;;;;;;25.77;12.90;;;4.30;99.90;;;;;;4965520;28;20230;-72
2024/02/29 06:39:10;;;;;;;18.23;11.47;;;4.30;99.90;;;;;;4963192;28;20478;-71
2024/02/29 06:41:36;;;;;;;19.87;11.90;;;4.30;99.90;;;;;;4962594;28;20480;-72
2024/02/29 06:44:05;;;;;;;18.87;10.60;;;4.30;99.90;;;;;;4964659;28;20222;-70
2024/02/29 06:46:31;;;;;;;15.53;10.60;;;4.30;99.90;;;;;;4965597;28;20461;-72
2024/02/29 06:48:56;;;;;;;18.17;10.70;;;4.30;99.90;;;;;;4964727;28;20454;-71
2024/02/29 06:51:23;;;;;;;18.73;10.27;;;4.40;99.90;;;;;;4966251;28;20608;-71
2024/02/29 06:53:49;;;;;;;28.30;13.20;;;4.30;99.90;;;;;;4962955;28;20297;-71
2024/02/29 06:56:14;;;;;;;27.13;16.90;;;4.30;99.90;;;;;;4965694;28;20963;-72
2024/02/29 06:58:42;;;;;;;23.70;13.30;;;4.30;99.90;;;;;;4980263;28;20716;-72
2024/02/29 07:01:09;;;;;;;25.80;13.30;;;4.20;99.90;;;;;;4961187;28;20249;-72
2024/02/29 07:03:34;;;;;;;26.20;14.40;;;4.20;99.90;;;;;;4960476;28;20462;-71
2024/02/29 07:06:00;;;;;;;23.60;15.20;;;4.20;99.90;;;;;;4966523;28;20450;-72
2024/02/29 07:08:26;;;;;;;38.87;19.10;;;4.20;99.90;;;;;;4964713;28;20223;-72
2024/02/29 07:10:51;;;;;;;36.83;22.73;;;4.20;99.90;;;;;;4964061;28;20237;-72
2024/02/29 07:13:17;;;;;;;28.47;18.17;;;4.20;99.90;;;;;;4957579;28;20202;-72
2024/02/29 07:15:43;;;;;;;28.83;18.30;;;4.20;99.90;;;;;;4956550;28;20757;-71
2024/02/29 07:18:10;;;;;;;26.80;16.27;;;4.20;99.90;;;;;;4960083;28;20302;-70
2024/02/29 07:20:36;;;;;;;22.87;13.53;;;4.20;99.90;;;;;;4954768;28;20238;-70
2024/02/29 07:23:02;;;;;;;20.87;12.33;;;4.20;99.90;;;;;;4955977;28;20454;-72
2024/02/29 07:25:28;;;;;;;17.83;10.43;;;4.20;99.90;;;;;;4945239;28;20211;-70
2024/02/29 07:27:57;;;;;;;21.60;10.47;;;4.20;99.90;;;;;;4977085;28;20985;-72
2024/02/29 07:30:23;;;;;;;20.90;10.50;;;4.20;99.90;;;;;;4964700;28;20226;-72
2024/02/29 07:32:48;;;;;;;17.03;9.63;;;4.30;99.90;;;;;;4970977;28;20853;-72
2024/02/29 07:35:17;;;;;;;13.10;7.77;;;4.20;99.90;;;;;;4965427;28;20250;-72
2024/02/29 07:37:46;;;;;;;14.37;7.83;;;4.10;99.90;;;;;;4980930;28;20214;-72
2024/02/29 07:40:11;;;;;;;11.13;7.07;;;4.10;99.90;;;;;;4947541;28;20481;-72
2024/02/29 07:42:39;;;;;;;11.30;6.80;;;4.10;99.90;;;;;;4967152;28;20863;-73
2024/02/29 07:45:06;;;;;;;8.83;6.57;;;4.10;99.90;;;;;;4962289;28;20226;-71
2024/02/29 07:47:32;;;;;;;14.33;8.00;;;4.00;99.90;;;;;;4961553;28;20469;-72
2024/02/29 07:49:58;;;;;;;8.50;6.67;;;4.00;99.90;;;;;;4965008;28;20458;-72
2024/02/29 07:52:23;;;;;;;14.60;6.53;;;3.90;99.90;;;;;;4972312;28;20475;-72
2024/02/29 07:54:49;;;;;;;9.63;6.90;;;3.90;99.90;;;;;;4955609;28;20233;-73
2024/02/29 07:57:15;;;;;;;12.50;6.50;;;4.00;99.90;;;;;;4954071;28;21435;-72
2024/02/29 07:59:41;;;;;;;9.83;5.83;;;4.00;99.90;;;;;;4955422;28;20233;-72
2024/02/29 08:02:07;;;;;;;15.40;6.60;;;3.80;99.90;;;;;;4957534;28;20735;-72
2024/02/29 08:04:32;;;;;;;10.83;6.00;;;3.60;99.90;;;;;;4952205;28;20847;-72
2024/02/29 08:06:58;;;;;;;11.70;7.00;;;3.70;99.90;;;;;;4953429;28;20221;-72
2024/02/29 08:09:24;;;;;;;14.40;6.30;;;3.90;99.90;;;;;;4941318;28;20223;-72
2024/02/29 08:11:50;;;;;;;15.27;6.47;;;4.00;99.90;;;;;;4956474;28;20246;-73
2024/02/29 08:14:16;;;;;;;9.93;6.03;;;4.00;99.90;;;;;;4955732;28;20498;-72
2024/02/29 08:16:41;;;;;;;19.50;6.60;;;3.80;99.90;;;;;;4954307;28;20227;-73
2024/02/29 08:19:07;;;;;;;14.63;7.13;;;3.60;99.90;;;;;;4942467;28;20223;-72
2024/02/29 08:21:33;;;;;;;14.20;7.40;;;3.50;99.90;;;;;;4955934;28;20603;-72
2024/02/29 08:23:59;;;;;;;16.60;7.37;;;3.50;99.90;;;;;;4953878;28;20224;-73
2024/02/29 08:26:25;;;;;;;18.00;8.80;;;3.50;99.90;;;;;;4954983;28;20704;-72
2024/02/29 08:28:51;;;;;;;15.07;7.80;;;3.40;99.90;;;;;;4961028;28;20541;-72
2024/02/29 08:31:17;;;;;;;12.77;7.20;;;3.40;99.90;;;;;;4960462;28;20471;-72
2024/02/29 08:33:43;;;;;;;15.80;7.97;;;3.50;99.90;;;;;;4956506;28;20225;-72
2024/02/29 08:36:10;;;;;;;16.47;7.57;;;3.60;99.90;;;;;;4942305;28;20230;-73
2024/02/29 08:38:37;;;;;;;15.60;7.70;;;3.60;99.90;;;;;;4955732;28;20223;-73
2024/02/29 08:41:04;;;;;;;16.30;8.23;;;3.60;99.90;;;;;;4959128;28;20458;-72
2024/02/29 08:43:30;;;;;;;20.33;8.73;;;3.60;99.90;;;;;;4955368;28;20520;-73
2024/02/29 08:45:56;;;;;;;16.70;8.13;;;3.50;99.90;;;;;;4941799;28;20994;-73
2024/02/29 08:48:21;;;;;;;19.30;8.80;;;3.50;99.90;;;;;;4957206;28;20458;-72
2024/02/29 08:50:47;;;;;;;19.30;9.87;;;3.70;99.90;;;;;;4959224;28;20253;-74
2024/02/29 08:53:13;;;;;;;16.30;7.33;;;3.80;99.90;;;;;;4958493;28;20218;-73
2024/02/29 08:55:39;;;;;;;20.50;9.70;;;3.90;99.90;;;;;;4953687;28;20215;-73
2024/02/29 08:58:05;;;;;;;16.67;8.93;;;4.00;99.90;;;;;;4972411;28;20253;-72
2024/02/29 09:00:30;;;;;;;20.93;9.90;;;4.10;99.90;;;;;;4953515;28;20226;-71
2024/02/29 09:02:56;;;;;;;17.60;8.33;;;4.20;99.90;;;;;;4950952;28;20469;-73
2024/02/29 09:05:23;;;;;;;18.10;9.67;;;4.30;99.90;;;;;;4959543;28;20215;-73
2024/02/29 09:07:49;;;;;;;24.77;10.90;;;4.40;99.90;;;;;;4954511;28;20538;-72
2024/02/29 09:10:15;;;;;;;22.83;10.03;;;4.40;99.90;;;;;;4960048;28;20666;-72
2024/02/29 09:12:41;;;;;;;16.57;8.73;;;4.40;99.90;;;;;;4952938;28;21324;-73
2024/02/29 09:15:07;;;;;;;20.63;10.63;;;4.40;99.90;;;;;;4969373;28;20492;-73
2024/02/29 09:17:33;;;;;;;20.10;9.87;;;4.50;99.90;;;;;;4951901;28;20552;-73
2024/02/29 09:19:59;;;;;;;17.37;10.33;;;4.60;99.90;;;;;;4958889;28;20557;-73
2024/02/29 09:22:25;;;;;;;17.10;9.73;;;4.60;99.90;;;;;;4960592;28;20218;-73
2024/02/29 09:24:50;;;;;;;17.60;9.77;;;4.70;99.90;;;;;;4944314;28;20215;-71
2024/02/29 09:27:16;;;;;;;20.43;10.90;;;4.70;99.90;;;;;;4949432;28;20297;-72
2024/02/29 09:29:42;;;;;;;23.30;11.47;;;4.70;99.90;;;;;;4955700;28;20222;-72
2024/02/29 09:32:08;;;;;;;18.50;10.80;;;4.70;99.90;;;;;;4961473;28;20309;-72
2024/02/29 09:34:37;;;;;;;22.70;11.17;;;4.80;99.90;;;;;;4957102;28;20228;-73
2024/02/29 09:37:06;;;;;;;20.20;10.30;;;4.70;99.90;;;;;;4958808;28;20226;-72
2024/02/29 09:39:32;;;;;;;27.80;13.07;;;4.70;99.90;;;;;;4959767;28;20565;-72
2024/02/29 09:41:58;;;;;;;19.73;9.70;;;4.70;99.90;;;;;;4957701;28;20469;-73
2024/02/29 09:44:25;;;;;;;24.60;11.07;;;4.80;99.90;;;;;;4962413;28;20471;-72
2024/02/29 09:46:51;;;;;;;22.90;11.30;;;4.90;99.90;;;;;;4962191;28;20293;-72
2024/02/29 09:49:17;;;;;;;25.87;11.77;;;5.00;99.90;;;;;;4957900;28;20981;-73
2024/02/29 09:51:46;;;;;;;24.60;11.60;;;5.00;99.90;;;;;;4958087;28;20789;-72
2024/02/29 09:54:16;;;;;;;27.17;11.77;;;5.00;99.90;;;;;;4961282;28;20473;-72
2024/02/29 09:56:42;;;;;;;29.40;13.50;;;5.00;99.90;;;;;;4954275;28;20549;-72
2024/02/29 09:59:12;;;;;;;29.70;13.33;;;5.00;99.90;;;;;;4969958;28;20550;-72
2024/02/29 10:01:39;;;;;;;32.20;14.27;;;5.00;99.90;;;;;;4966666;28;20306;-71
2024/02/29 10:04:05;;;;;;;36.30;15.23;;;5.00;99.90;;;;;;4963542;28;21057;-72
2024/02/29 10:06:31;;;;;;;30.00;14.60;;;5.00;99.90;;;;;;4952676;28;20470;-72
2024/02/29 10:08:56;;;;;;;32.10;13.33;;;4.90;99.90;;;;;;4959448;28;20468;-72
2024/02/29 10:11:27;;;;;;;32.90;14.57;;;5.00;99.90;;;;;;4962632;28;20214;-72
2024/02/29 10:13:53;;;;;;;27.73;12.93;;;5.00;99.90;;;;;;4963905;28;20230;-72
2024/02/29 10:16:19;;;;;;;33.93;13.93;;;5.10;99.90;;;;;;4960221;28;20466;-72
2024/02/29 10:18:45;;;;;;;25.03;11.87;;;5.10;99.90;;;;;;4954082;28;20321;-72
2024/02/29 10:21:11;;;;;;;29.30;11.37;;;5.20;99.90;;;;;;4943281;28;20306;-73
2024/02/29 10:23:38;;;;;;;28.83;12.87;;;5.30;99.90;;;;;;4958685;28;20285;-72
2024/02/29 10:26:05;;;;;;;22.37;11.83;;;5.30;99.90;;;;;;4962221;28;20466;-72
2024/02/29 10:28:30;;;;;;;28.13;12.77;;;5.30;99.90;;;;;;4957342;28;20450;-72
2024/02/29 10:30:58;;;;;;;25.93;12.60;;;5.40;99.90;;;;;;4961256;28;20466;-72
2024/02/29 10:33:25;;;;;;;23.07;12.23;;;5.40;99.90;;;;;;4960148;28;20219;-72
2024/02/29 10:35:52;;;;;;;22.37;12.73;;;5.40;99.90;;;;;;4959420;28;20870;-73
2024/02/29 10:38:18;;;;;;;27.33;13.37;;;5.40;99.90;;;;;;4959266;28;20492;-73
2024/02/29 10:40:51;;;;;;;25.87;12.10;;;5.40;99.90;;;;;;4955944;28;20467;-72
2024/02/29 10:43:22;;;;;;;29.90;13.47;;;5.50;99.90;;;;;;4958708;28;20485;-73
2024/02/29 10:45:50;;;;;;;28.57;13.60;;;5.50;99.90;;;;;;4956011;28;20489;-72
2024/02/29 10:48:25;;;;;;;28.50;12.07;;;5.50;99.90;;;;;;4959162;28;20459;-73
2024/02/29 10:51:08;;;;;;;24.63;13.17;;;5.50;99.90;;;;;;4946478;28;20457;-73
2024/02/29 10:53:49;;;;;;;26.17;12.23;;;5.50;99.90;;;;;;4958041;28;20807;-73
2024/02/29 10:56:23;;;;;;;34.00;13.73;;;5.50;99.90;;;;;;4959479;28;20543;-73
2024/02/29 10:59:05;;;;;;;29.10;12.47;;;5.50;99.90;;;;;;4956735;28;20549;-73
2024/02/29 11:01:37;;;;;;;25.73;11.90;;;5.50;99.90;;;;;;4956043;28;20473;-72
2024/02/29 11:04:04;;;;;;;28.43;12.50;;;5.60;99.90;;;;;;4960998;28;20512;-73
2024/02/29 11:06:34;;;;;;;24.50;11.67;;;5.60;99.90;;;;;;4955344;28;20558;-74
2024/02/29 11:09:02;;;;;;;31.77;13.07;;;5.70;99.90;;;;;;4961367;28;20969;-73
2024/02/29 11:11:28;;;;;;;27.40;13.33;;;5.70;99.90;;;;;;4952178;28;20554;-72
2024/02/29 11:14:06;;;;;;;29.87;13.77;;;5.70;99.90;;;;;;4960142;28;20886;-73
2024/02/29 11:16:33;;;;;;;26.73;12.67;;;5.70;99.90;;;;;;4952532;28;21001;-73
2024/02/29 11:19:03;;;;;;;25.20;11.03;;;5.70;99.90;;;;;;4945123;28;20466;-73
2024/02/29 11:21:28;;;;;;;22.40;12.73;;;5.70;99.90;;;;;;4955532;28;20911;-72
2024/02/29 11:24:04;;;;;;;38.70;13.13;;;5.70;99.90;;;;;;4960349;28;20553;-73
2024/02/29 11:26:33;;;;;;;27.93;12.43;;;5.70;99.90;;;;;;4972628;28;20268;-72
2024/02/29 11:29:15;;;;;;;21.70;12.27;;;5.80;99.90;;;;;;4943866;28;20466;-73
2024/02/29 11:31:43;;;;;;;25.00;12.00;;;5.90;99.90;;;;;;4954424;28;20474;-73
2024/02/29 11:34:09;;;;;;;29.90;13.97;;;5.90;99.90;;;;;;4958787;28;20477;-74
2024/02/29 11:36:36;;;;;;;24.80;12.30;;;6.00;99.90;;;;;;4953521;28;20494;-73
2024/02/29 11:39:03;;;;;;;29.23;13.37;;;6.00;99.90;;;;;;4957669;28;20484;-73
2024/02/29 11:41:29;;;;;;;23.87;13.23;;;6.00;99.90;;;;;;4951415;28;20554;-73
2024/02/29 11:43:55;;;;;;;27.60;13.00;;;5.90;99.90;;;;;;4962135;28;20466;-74
2024/02/29 11:46:20;;;;;;;29.97;13.47;;;6.00;99.90;;;;;;4970052;28;20544;-74
2024/02/29 11:48:48;;;;;;;28.70;13.20;;;6.10;99.90;;;;;;4954868;28;20237;-73
2024/02/29 11:51:14;;;;;;;24.60;11.93;;;6.10;99.90;;;;;;4958299;28;20254;-73
2024/02/29 11:53:40;;;;;;;23.87;12.83;;;6.20;99.90;;;;;;4960105;28;20476;-74
2024/02/29 11:56:06;;;;;;;27.10;13.27;;;6.20;99.90;;;;;;4957022;28;20837;-71
2024/02/29 11:58:33;;;;;;;36.00;13.90;;;6.20;99.90;;;;;;4952301;28;20220;-73
2024/02/29 12:01:00;;;;;;;29.40;13.80;;;6.30;99.90;;;;;;4959085;28;20458;-72
2024/02/29 12:03:27;;;;;;;28.47;13.73;;;6.30;99.90;;;;;;4957601;28;20538;-74
2024/02/29 12:05:53;;;;;;;26.87;13.17;;;6.30;99.90;;;;;;4953241;28;20455;-74
2024/02/29 12:08:19;;;;;;;32.27;14.70;;;6.40;99.90;;;;;;4956215;28;20461;-73
2024/02/29 12:10:45;;;;;;;35.03;13.67;;;6.40;99.90;;;;;;4937720;28;20533;-74
2024/02/29 12:13:11;;;;;;;27.60;12.90;;;6.40;99.90;;;;;;4959709;28;20259;-74
2024/02/29 12:15:38;;;;;;;27.67;12.10;;;6.40;99.90;;;;;;4951680;28;20465;-74
2024/02/29 12:18:09;;;;;;;30.97;13.70;;;6.50;99.90;;;;;;4957815;28;20227;-74
2024/02/29 12:20:36;;;;;;;27.93;14.27;;;6.50;99.90;;;;;;4964504;28;20561;-74
2024/02/29 12:23:02;;;;;;;26.97;12.83;;;6.60;99.90;;;;;;4953874;28;20859;-73
2024/02/29 12:25:27;;;;;;;25.70;14.10;;;6.60;99.90;;;;;;4960982;28;20466;-74
2024/02/29 12:27:54;;;;;;;29.17;13.87;;;6.70;99.90;;;;;;4960597;28;20454;-74
2024/02/29 12:30:20;;;;;;;29.30;14.80;;;6.70;99.90;;;;;;4960686;28;20278;-74
2024/02/29 12:32:48;;;;;;;29.20;13.50;;;6.80;99.90;;;;;;4936132;28;20469;-74
2024/02/29 12:35:14;;;;;;;31.10;14.17;;;6.80;99.90;;;;;;4959972;28;20464;-74
2024/02/29 12:37:44;;;;;;;29.03;14.20;;;6.80;99.90;;;;;;4950138;28;20470;-74
2024/02/29 12:40:14;;;;;;;30.63;15.80;;;6.80;99.90;;;;;;4960072;28;20602;-74
2024/02/29 12:42:42;;;;;;;33.50;15.50;;;6.90;99.90;;;;;;4967636;28;20505;-73